Time;durP1;ratioP1;P1;durP2;ratioP2;P2;SDS_P1;SDS_P2;PMS_P1;PMS_P2;Temp;Humidity;BMP_temperature;BMP_pressure;BME280_temperature;BME280_humidity;BME280_pressure;Samples;Min_cycle;Max_cycle;Signal;HPM_P1;HPM_P2
2023/04/19 00:01:00;;;;;;;18.88;10.55;;;;;;;9.29;93.14;102581.97;4899180;29;20036;-73
2023/04/19 00:03:29;;;;;;;21.10;10.07;;;;;;;9.36;92.96;102583.09;4900025;29;20484;-73
2023/04/19 00:05:57;;;;;;;22.88;10.50;;;;;;;9.35;92.95;102589.38;4900073;29;20032;-73
2023/04/19 00:08:22;;;;;;;19.15;9.82;;;;;;;9.34;93.27;102583.22;4883606;29;20039;-74
2023/04/19 00:10:48;;;;;;;21.27;11.88;;;;;;;9.37;93.69;102582.09;4894552;29;20393;-73
2023/04/19 00:13:14;;;;;;;18.00;10.15;;;;;;;9.43;93.24;102590.34;4867572;29;20032;-73
2023/04/19 00:15:41;;;;;;;18.48;10.93;;;;;;;9.34;93.41;102574.41;4889696;29;20076;-73
2023/04/19 00:18:06;;;;;;;18.33;11.18;;;;;;;9.40;93.56;102587.94;4881996;29;20120;-73
2023/04/19 00:20:31;;;;;;;18.00;9.40;;;;;;;9.38;93.62;102579.28;4834272;29;20096;-73
2023/04/19 00:22:58;;;;;;;17.95;9.73;;;;;;;9.41;93.29;102578.16;4881936;29;20088;-73
2023/04/19 00:25:23;;;;;;;17.63;10.35;;;;;;;9.36;93.76;102575.09;4896885;29;20045;-73
2023/04/19 00:27:49;;;;;;;25.50;11.75;;;;;;;9.41;94.22;102579.00;4894895;29;20032;-73
2023/04/19 00:30:14;;;;;;;20.25;10.77;;;;;;;9.39;94.37;102564.97;4883354;29;20028;-73
2023/04/19 00:32:40;;;;;;;20.63;10.32;;;;;;;9.43;94.26;102573.50;4879971;29;20056;-73
2023/04/19 00:35:05;;;;;;;21.40;10.55;;;;;;;9.32;94.89;102563.03;4896684;29;20056;-73
2023/04/19 00:37:31;;;;;;;21.05;10.55;;;;;;;9.40;94.67;102573.78;4879919;29;20467;-73
2023/04/19 00:39:56;;;;;;;20.27;11.30;;;;;;;9.31;94.71;102564.03;4892799;29;20037;-73
2023/04/19 00:42:21;;;;;;;20.38;10.48;;;;;;;9.43;94.93;102577.03;4878712;29;20037;-73
2023/04/19 00:44:47;;;;;;;21.50;11.20;;;;;;;9.39;94.83;102570.31;4896116;29;20028;-73
2023/04/19 00:47:13;;;;;;;19.20;10.43;;;;;;;9.39;95.00;102572.13;4864381;29;20087;-73
2023/04/19 00:49:39;;;;;;;20.80;10.55;;;;;;;9.44;95.18;102583.19;4896597;29;20024;-73
2023/04/19 00:52:06;;;;;;;19.20;10.02;;;;;;;9.41;95.47;102576.31;4896558;29;20032;-73
2023/04/19 00:54:32;;;;;;;20.20;10.82;;;;;;;9.42;95.79;102570.00;4867814;29;20028;-73
2023/04/19 00:56:58;;;;;;;18.95;10.43;;;;;;;9.41;95.66;102570.16;4877165;29;20089;-73
2023/04/19 00:59:23;;;;;;;18.67;9.75;;;;;;;9.39;95.89;102561.47;4861804;29;20065;-73
2023/04/19 01:01:49;;;;;;;20.38;11.07;;;;;;;9.44;95.54;102565.38;4876983;29;20053;-73
2023/04/19 01:04:15;;;;;;;24.77;11.65;;;;;;;9.43;96.06;102566.38;4878390;29;20040;-73
2023/04/19 01:06:41;;;;;;;19.55;10.60;;;;;;;9.43;96.23;102569.03;4878264;29;20037;-73
2023/04/19 01:09:06;;;;;;;18.42;10.68;;;;;;;9.43;96.63;102571.69;4878248;29;20048;-73
2023/04/19 01:11:32;;;;;;;18.02;9.82;;;;;;;9.42;96.94;102559.34;4878053;29;20072;-73
2023/04/19 01:13:58;;;;;;;18.83;9.93;;;;;;;9.42;96.25;102555.84;4878195;29;20097;-73
2023/04/19 01:16:25;;;;;;;19.63;10.05;;;;;;;9.47;96.77;102558.09;4876684;29;20117;-73
2023/04/19 01:18:50;;;;;;;17.55;9.65;;;;;;;9.47;96.81;102561.59;4876883;29;20051;-73
2023/04/19 01:21:17;;;;;;;18.83;9.75;;;;;;;9.43;97.38;102558.38;4878047;29;20119;-73
2023/04/19 01:23:43;;;;;;;20.27;11.57;;;;;;;9.44;97.59;102554.72;4877917;29;20057;-73
2023/04/19 01:26:08;;;;;;;20.13;10.32;;;;;;;9.44;98.11;102559.22;4863745;29;20055;-73
2023/04/19 01:28:34;;;;;;;21.00;11.05;;;;;;;9.46;97.87;102554.59;4895835;29;20080;-73
2023/04/19 01:30:59;;;;;;;19.80;10.98;;;;;;;9.46;98.09;102557.25;4878809;29;20036;-73
2023/04/19 01:33:24;;;;;;;20.40;10.60;;;;;;;9.41;98.25;102549.69;4895335;29;20036;-73
2023/04/19 01:35:50;;;;;;;21.80;11.00;;;;;;;9.40;98.83;102542.69;4895817;29;20039;-73
2023/04/19 01:38:16;;;;;;;20.70;10.40;;;;;;;9.48;98.94;102554.44;4886010;29;20127;-73
2023/04/19 01:40:41;;;;;;;18.27;10.38;;;;;;;9.46;99.17;102543.94;4895637;29;20032;-73
2023/04/19 01:43:07;;;;;;;19.30;10.75;;;;;;;9.48;99.68;102544.59;4886201;29;20053;-73
2023/04/19 01:45:35;;;;;;;22.38;11.48;;;;;;;9.53;99.82;102549.50;4894232;29;20071;-73
2023/04/19 01:48:01;;;;;;;20.35;10.63;;;;;;;9.54;99.86;102546.69;4895485;29;20047;-73
2023/04/19 01:50:27;;;;;;;19.83;10.60;;;;;;;9.59;99.96;102539.09;4886114;29;20047;-73
2023/04/19 01:52:52;;;;;;;23.45;13.32;;;;;;;9.60;100.00;102539.94;4877531;29;20032;-73
2023/04/19 01:55:18;;;;;;;21.60;12.10;;;;;;;9.64;100.00;102535.97;4880670;29;20028;-73
2023/04/19 01:57:43;;;;;;;27.42;12.57;;;;;;;9.70;99.77;102531.91;4876358;29;20033;-73
2023/04/19 02:00:09;;;;;;;22.02;12.25;;;;;;;9.74;99.67;102535.91;4867890;29;20032;-73
2023/04/19 02:02:37;;;;;;;22.25;11.48;;;;;;;9.77;99.82;102528.50;4895090;29;20044;-73
2023/04/19 02:05:02;;;;;;;23.60;11.60;;;;;;;9.76;99.85;102532.13;4878377;29;20025;-73
2023/04/19 02:07:28;;;;;;;20.88;10.73;;;;;;;9.74;100.00;102534.09;4878326;29;20043;-73
2023/04/19 02:09:53;;;;;;;20.88;10.48;;;;;;;9.73;99.55;102542.25;4895110;29;20354;-73
2023/04/19 02:12:19;;;;;;;20.83;11.07;;;;;;;9.70;100.00;102526.56;4876953;29;20033;-73
2023/04/19 02:14:44;;;;;;;20.25;11.45;;;;;;;9.71;100.00;102537.06;4877029;29;20029;-73
2023/04/19 02:17:11;;;;;;;19.65;10.23;;;;;;;9.67;100.00;102527.72;4877164;29;20480;-73
2023/04/19 02:19:36;;;;;;;21.17;11.05;;;;;;;9.64;100.00;102530.63;4893304;29;20400;-73
2023/04/19 02:22:02;;;;;;;20.15;10.88;;;;;;;9.66;100.00;102529.50;4862660;29;20047;-73
2023/04/19 02:24:27;;;;;;;19.98;10.02;;;;;;;9.68;100.00;102533.88;4894514;29;20088;-73
2023/04/19 02:26:52;;;;;;;19.02;10.77;;;;;;;9.65;100.00;102538.50;4877950;29;20036;-73
2023/04/19 02:29:18;;;;;;;20.48;11.27;;;;;;;9.66;100.00;102537.50;4877939;29;20032;-73
2023/04/19 02:31:45;;;;;;;20.10;10.45;;;;;;;9.62;100.00;102527.31;4887218;29;20056;-73
2023/04/19 02:34:11;;;;;;;28.45;11.35;;;;;;;9.64;100.00;102528.84;4894581;29;20028;-73
2023/04/19 02:36:36;;;;;;;32.83;10.18;;;;;;;9.63;100.00;102529.81;4894617;29;20036;-73
2023/04/19 02:39:01;;;;;;;19.48;10.90;;;;;;;9.61;100.00;102537.09;4894655;29;20036;-73
2023/04/19 02:41:27;;;;;;;18.95;9.85;;;;;;;9.60;100.00;102529.28;4894472;29;20492;-73
2023/04/19 02:43:52;;;;;;;20.95;10.85;;;;;;;9.60;100.00;102540.75;4877725;29;20107;-73
2023/04/19 02:46:17;;;;;;;19.75;11.38;;;;;;;9.57;100.00;102534.91;4893899;29;20036;-73
2023/04/19 02:48:43;;;;;;;21.63;10.10;;;;;;;9.53;100.00;102539.69;4894399;29;20028;-73
2023/04/19 02:51:15;;;;;;;19.05;9.20;;;;;;;9.47;100.00;102534.94;4894470;29;20103;-73
2023/04/19 02:53:40;;;;;;;19.65;10.73;;;;;;;9.46;100.00;102537.75;4879544;29;20992;-73
2023/04/19 02:56:06;;;;;;;16.38;8.93;;;;;;;9.42;100.00;102530.06;4859625;29;20044;-73
2023/04/19 02:58:31;;;;;;;19.30;9.02;;;;;;;9.44;100.00;102546.72;4859856;29;20116;-73
2023/04/19 03:00:56;;;;;;;20.67;10.32;;;;;;;9.34;100.00;102532.63;4876544;29;20123;-73
2023/04/19 03:03:22;;;;;;;17.88;9.60;;;;;;;9.40;100.00;102537.34;4876472;29;20037;-73
2023/04/19 03:05:47;;;;;;;18.75;9.63;;;;;;;9.39;100.00;102541.00;4875096;29;20040;-73
2023/04/19 03:08:12;;;;;;;18.45;10.05;;;;;;;9.37;100.00;102542.13;4876346;29;20501;-73
2023/04/19 03:10:38;;;;;;;17.58;9.48;;;;;;;9.38;100.00;102543.84;4876397;29;20032;-73
2023/04/19 03:13:03;;;;;;;20.45;10.10;;;;;;;9.37;100.00;102539.47;4893728;29;20037;-73
2023/04/19 03:15:28;;;;;;;17.60;9.68;;;;;;;9.36;100.00;102538.66;4876163;29;20501;-73
2023/04/19 03:17:54;;;;;;;18.08;10.50;;;;;;;9.32;100.00;102534.59;4876146;29;20081;-73
2023/04/19 03:20:19;;;;;;;21.35;11.70;;;;;;;9.36;100.00;102532.50;4876321;29;20044;-73
2023/04/19 03:22:45;;;;;;;17.60;8.93;;;;;;;9.34;100.00;102529.97;4859454;29;20075;-73
2023/04/19 03:25:12;;;;;;;20.20;9.93;;;;;;;9.33;100.00;102536.28;4876085;29;20053;-73
2023/04/19 03:27:37;;;;;;;17.83;9.88;;;;;;;9.33;100.00;102533.63;4859733;29;20048;-73
2023/04/19 03:30:03;;;;;;;17.25;9.85;;;;;;;9.31;100.00;102535.59;4893940;29;20044;-73
2023/04/19 03:32:30;;;;;;;19.63;9.27;;;;;;;9.28;100.00;102524.41;4894002;29;20111;-73
2023/04/19 03:34:56;;;;;;;22.38;9.95;;;;;;;9.27;100.00;102534.19;4893882;29;20077;-73
2023/04/19 03:37:21;;;;;;;16.05;8.50;;;;;;;9.24;100.00;102525.66;4893865;29;20064;-73
2023/04/19 03:39:46;;;;;;;19.52;9.25;;;;;;;9.26;100.00;102529.03;4893887;29;20060;-73
2023/04/19 03:42:12;;;;;;;22.85;11.20;;;;;;;9.16;100.00;102516.56;4881053;29;20045;-73
2023/04/19 03:44:37;;;;;;;20.98;10.52;;;;;;;9.21;100.00;102519.63;4876054;29;20136;-73
2023/04/19 03:47:03;;;;;;;21.73;10.05;;;;;;;9.20;100.00;102531.28;4876090;29;20029;-73
2023/04/19 03:49:28;;;;;;;18.75;9.77;;;;;;;9.20;100.00;102527.78;4874866;29;20033;-73
2023/04/19 03:51:53;;;;;;;16.92;9.25;;;;;;;9.20;100.00;102531.28;4893718;29;20473;-73
2023/04/19 03:54:19;;;;;;;18.20;9.98;;;;;;;9.17;100.00;102530.75;4893741;29;20507;-73
2023/04/19 03:56:44;;;;;;;17.52;10.32;;;;;;;9.18;100.00;102529.75;4895911;29;20033;-73
2023/04/19 03:59:09;;;;;;;21.23;11.30;;;;;;;9.13;100.00;102524.84;4880342;29;20123;-73
2023/04/19 04:01:40;;;;;;;15.80;9.15;;;;;;;9.14;100.00;102531.88;4897359;29;20119;-73
2023/04/19 04:04:10;;;;;;;17.85;9.70;;;;;;;9.12;100.00;102531.19;4897367;29;20493;-73
2023/04/19 04:06:36;;;;;;;18.02;8.38;;;;;;;9.06;100.00;102529.09;4897163;29;20036;-73
2023/04/19 04:09:01;;;;;;;17.30;9.02;;;;;;;9.08;100.00;102528.94;4897241;29;20042;-73
2023/04/19 04:11:26;;;;;;;15.85;9.02;;;;;;;9.10;100.00;102530.47;4897229;29;20040;-73
2023/04/19 04:13:52;;;;;;;17.50;8.85;;;;;;;9.02;100.00;102532.19;4880289;29;20044;-73
2023/04/19 04:16:18;;;;;;;17.15;9.18;;;;;;;9.02;100.00;102526.88;4880296;29;20068;-73
2023/04/19 04:18:43;;;;;;;17.15;8.95;;;;;;;8.95;100.00;102534.59;4880277;29;20503;-73
2023/04/19 04:21:08;;;;;;;15.15;7.60;;;;;;;8.90;100.00;102532.34;4897060;29;20484;-73
2023/04/19 04:23:34;;;;;;;18.48;9.13;;;;;;;8.84;100.00;102534.75;4896831;29;20083;-73
2023/04/19 04:26:00;;;;;;;15.93;8.27;;;;;;;8.77;100.00;102532.66;4897177;29;20042;-73
2023/04/19 04:28:26;;;;;;;15.52;8.95;;;;;;;8.67;100.00;102536.31;4879047;29;20053;-73
2023/04/19 04:30:52;;;;;;;17.40;8.65;;;;;;;8.57;100.00;102536.34;4878954;29;20061;-73
2023/04/19 04:33:17;;;;;;;13.52;7.03;;;;;;;8.50;100.00;102541.38;4879029;29;20541;-73
2023/04/19 04:35:42;;;;;;;12.60;7.47;;;;;;;8.48;100.00;102538.03;4885523;29;20036;-73
2023/04/19 04:38:08;;;;;;;16.98;8.23;;;;;;;8.43;100.00;102542.09;4848713;29;20066;-73
2023/04/19 04:40:34;;;;;;;12.65;6.38;;;;;;;8.41;100.00;102538.72;4879835;29;20068;-73
2023/04/19 04:43:03;;;;;;;14.38;6.57;;;;;;;8.34;100.00;102538.44;4879609;29;20515;-73
2023/04/19 04:45:28;;;;;;;14.30;7.28;;;;;;;8.31;100.00;102541.38;4896676;29;20144;-73
2023/04/19 04:47:54;;;;;;;14.55;6.85;;;;;;;8.27;100.00;102551.44;4896528;29;20127;-73
2023/04/19 04:50:19;;;;;;;14.65;6.72;;;;;;;8.25;100.00;102552.53;4896201;29;20504;-73
2023/04/19 04:52:44;;;;;;;16.88;7.32;;;;;;;8.18;100.00;102541.66;4892688;29;20052;-73
2023/04/19 04:55:10;;;;;;;16.05;7.28;;;;;;;8.14;100.00;102542.88;4878315;29;20124;-73
2023/04/19 04:57:35;;;;;;;17.83;8.15;;;;;;;8.09;100.00;102547.78;4877180;29;20068;-73
2023/04/19 05:00:01;;;;;;;17.38;7.15;;;;;;;8.04;100.00;102548.22;4878495;29;20037;-73
2023/04/19 05:02:26;;;;;;;15.02;8.05;;;;;;;8.02;100.00;102547.50;4879120;29;20052;-73
2023/04/19 05:04:51;;;;;;;14.48;7.43;;;;;;;7.98;100.00;102545.25;4896083;29;20036;-73
2023/04/19 05:07:17;;;;;;;15.73;7.30;;;;;;;7.94;100.00;102542.03;4873889;29;20040;-73
2023/04/19 05:09:42;;;;;;;18.02;7.65;;;;;;;7.90;100.00;102538.81;4878076;29;20096;-73
2023/04/19 05:12:07;;;;;;;16.80;8.18;;;;;;;7.88;100.00;102550.53;4878009;29;20127;-73
2023/04/19 05:14:33;;;;;;;19.10;7.10;;;;;;;7.83;100.00;102547.47;4877770;29;20079;-72
2023/04/19 05:16:58;;;;;;;16.33;7.00;;;;;;;7.84;100.00;102555.31;4861208;29;20076;-73
2023/04/19 05:19:23;;;;;;;14.27;7.18;;;;;;;7.84;100.00;102560.63;4877995;29;20037;-73
2023/04/19 05:21:49;;;;;;;14.13;7.10;;;;;;;7.80;100.00;102551.22;4877894;29;20381;-73
2023/04/19 05:24:14;;;;;;;12.65;6.50;;;;;;;7.79;100.00;102556.69;4881035;29;20076;-73
2023/04/19 05:26:39;;;;;;;15.27;7.63;;;;;;;7.78;100.00;102555.00;4878575;29;20040;-74
2023/04/19 05:29:05;;;;;;;18.10;7.15;;;;;;;7.79;100.00;102554.88;4880545;29;20037;-74
2023/04/19 05:31:30;;;;;;;15.20;8.43;;;;;;;7.78;100.00;102550.53;4880842;29;20032;-75
2023/04/19 05:33:56;;;;;;;13.85;7.75;;;;;;;7.87;100.00;102554.19;4885757;29;20089;-80
2023/04/19 05:36:21;;;;;;;14.45;7.00;;;;;;;7.93;100.00;102563.44;4872024;29;20028;-72
2023/04/19 05:38:46;;;;;;;14.45;6.50;;;;;;;7.99;100.00;102546.91;4881498;29;21000;-76
2023/04/19 05:41:12;;;;;;;26.88;8.20;;;;;;;8.05;100.00;102551.72;4885955;29;20122;-76
2023/04/19 05:43:37;;;;;;;15.07;9.10;;;;;;;8.10;100.00;102552.13;4885697;29;20048;-77
2023/04/19 05:46:02;;;;;;;11.95;6.30;;;;;;;8.23;99.12;102552.69;4888649;29;20032;-77
2023/04/19 05:48:28;;;;;;;10.50;6.22;;;;;;;8.29;97.33;102544.16;4886074;29;20032;-76
2023/04/19 05:50:56;;;;;;;13.38;6.75;;;;;;;8.33;95.98;102542.06;4883385;29;20020;-77
2023/04/19 05:53:21;;;;;;;13.25;6.88;;;;;;;8.47;94.26;102533.69;4868666;29;20029;-77
2023/04/19 05:55:48;;;;;;;14.32;6.68;;;;;;;8.67;93.14;102550.47;4882374;29;20040;-75
2023/04/19 05:58:13;;;;;;;12.23;6.72;;;;;;;8.94;90.99;102547.06;4879437;29;20052;-75
2023/04/19 06:00:39;;;;;;;14.00;6.70;;;;;;;9.06;88.88;102547.72;4871285;29;20060;-76
2023/04/19 06:03:04;;;;;;;13.23;6.13;;;;;;;9.16;88.26;102550.34;4888185;29;20035;-75
2023/04/19 06:05:29;;;;;;;12.68;5.90;;;;;;;9.10;88.60;102559.75;4893511;29;20038;-74
2023/04/19 06:07:55;;;;;;;13.23;6.72;;;;;;;9.03;88.32;102552.50;4882888;29;20037;-74
2023/04/19 06:10:22;;;;;;;12.63;6.28;;;;;;;8.95;86.15;102556.72;4876931;29;20036;-73
2023/04/19 06:12:47;;;;;;;12.57;7.00;;;;;;;8.92;85.79;102561.50;4876857;29;20039;-73
2023/04/19 06:15:13;;;;;;;14.88;6.50;;;;;;;8.93;84.79;102553.38;4880513;29;20115;-74
2023/04/19 06:17:38;;;;;;;16.00;6.93;;;;;;;8.94;84.00;102556.88;4894708;29;20124;-73
2023/04/19 06:20:06;;;;;;;11.15;6.40;;;;;;;8.98;84.25;102564.41;4876931;29;20040;-74
2023/04/19 06:22:31;;;;;;;11.77;5.97;;;;;;;9.04;82.98;102570.13;4894594;29;20025;-73
2023/04/19 06:24:57;;;;;;;11.18;5.05;;;;;;;9.11;82.54;102561.44;4894549;29;20505;-74
2023/04/19 06:27:22;;;;;;;18.35;6.03;;;;;;;9.19;79.71;102566.03;4894517;29;20480;-75
2023/04/19 06:29:47;;;;;;;12.95;6.30;;;;;;;9.25;78.28;102560.16;4894499;29;20052;-75
2023/04/19 06:32:13;;;;;;;12.45;5.68;;;;;;;9.33;79.01;102570.91;4879266;29;20045;-75
2023/04/19 06:34:38;;;;;;;13.40;5.95;;;;;;;9.40;79.09;102561.31;4894475;29;20044;-74
2023/04/19 06:37:04;;;;;;;12.35;6.18;;;;;;;9.64;79.21;102563.47;4894505;29;20071;-74
2023/04/19 06:39:29;;;;;;;11.27;6.18;;;;;;;9.94;76.12;102576.63;4894666;29;20062;-75
2023/04/19 06:41:54;;;;;;;9.38;5.38;;;;;;;10.03;75.35;102565.91;4884055;29;20084;-75
2023/04/19 06:44:20;;;;;;;11.73;5.35;;;;;;;9.96;74.46;102559.50;4892311;29;20033;-75
2023/04/19 06:46:45;;;;;;;11.77;6.45;;;;;;;9.96;75.21;102575.50;4887655;29;20068;-75
2023/04/19 06:49:10;;;;;;;11.13;5.85;;;;;;;9.99;76.07;102558.34;4850816;29;20033;-76
2023/04/19 06:51:38;;;;;;;12.88;5.40;;;;;;;10.04;74.63;102566.75;4884186;29;20536;-77
2023/04/19 06:54:03;;;;;;;11.75;5.60;;;;;;;10.02;74.45;102558.06;4881830;29;20481;-77
2023/04/19 06:56:46;;;;;;;13.85;5.88;;;;;;;10.04;74.48;102567.56;4882161;29;20068;-77
2023/04/19 06:59:13;;;;;;;11.60;6.03;;;;;;;10.04;71.83;102562.25;4882513;29;20035;-77
2023/04/19 07:01:39;;;;;;;9.75;5.30;;;;;;;10.05;72.53;102563.91;4883771;29;20060;-77
2023/04/19 07:04:06;;;;;;;11.25;5.30;;;;;;;10.06;70.79;102565.59;4884218;29;20030;-77
2023/04/19 07:06:32;;;;;;;9.60;4.90;;;;;;;10.00;69.11;102563.53;4870970;29;20116;-77
2023/04/19 07:08:57;;;;;;;13.20;6.05;;;;;;;10.01;70.09;102567.03;4880699;29;20048;-77
2023/04/19 07:11:23;;;;;;;14.85;6.15;;;;;;;10.09;68.84;102564.47;4881941;29;20036;-77
2023/04/19 07:13:49;;;;;;;10.63;5.45;;;;;;;10.06;69.41;102554.94;4881831;29;20037;-77
2023/04/19 07:16:14;;;;;;;10.82;5.07;;;;;;;10.14;70.86;102556.00;4883087;29;20043;-77
2023/04/19 07:18:40;;;;;;;11.10;5.75;;;;;;;10.20;70.95;102555.41;4865492;29;20459;-77
2023/04/19 07:21:05;;;;;;;12.95;6.82;;;;;;;10.29;71.04;102557.16;4865889;29;20111;-77
2023/04/19 07:23:30;;;;;;;11.00;5.40;;;;;;;10.35;68.62;102556.56;4863762;29;20061;-76
2023/04/19 07:25:56;;;;;;;12.10;5.93;;;;;;;10.51;68.08;102567.38;4864060;29;20029;-77
2023/04/19 07:28:21;;;;;;;12.43;5.18;;;;;;;10.64;67.67;102564.31;4863803;29;20104;-77
2023/04/19 07:30:46;;;;;;;11.15;5.35;;;;;;;10.71;67.03;102559.19;4866190;29;20037;-77
2023/04/19 07:33:12;;;;;;;10.75;5.60;;;;;;;10.86;67.54;102554.13;4865186;29;20155;-76
2023/04/19 07:35:40;;;;;;;12.88;5.47;;;;;;;11.07;65.58;102567.13;4871720;29;20930;-77
2023/04/19 07:38:06;;;;;;;10.00;5.40;;;;;;;11.23;63.52;102558.34;4866931;29;20160;-77
2023/04/19 07:40:31;;;;;;;9.88;4.93;;;;;;;11.33;65.02;102557.25;4866478;29;20549;-77
2023/04/19 07:42:56;;;;;;;11.63;5.95;;;;;;;11.47;62.91;102553.13;4866851;29;20025;-77
2023/04/19 07:45:22;;;;;;;10.05;5.05;;;;;;;11.45;62.17;102570.31;4867957;29;20040;-76
2023/04/19 07:47:48;;;;;;;12.40;6.18;;;;;;;11.33;61.01;102559.09;4865906;29;21347;-75
2023/04/19 07:50:13;;;;;;;12.07;6.05;;;;;;;11.31;62.03;102559.22;4866012;29;20166;-75
2023/04/19 07:52:38;;;;;;;10.82;6.28;;;;;;;11.57;62.43;102558.34;4863733;29;20924;-76
2023/04/19 07:55:04;;;;;;;9.23;5.57;;;;;;;12.28;60.43;102549.84;4864817;29;20140;-75
2023/04/19 07:57:30;;;;;;;11.43;4.95;;;;;;;13.18;55.71;102551.63;4869624;29;20108;-76
2023/04/19 07:59:58;;;;;;;11.95;5.65;;;;;;;13.65;52.85;102561.50;4863811;29;20033;-75
2023/04/19 08:02:25;;;;;;;9.20;5.05;;;;;;;14.10;51.02;102549.19;4864477;29;20049;-76
2023/04/19 08:04:50;;;;;;;11.27;5.18;;;;;;;14.82;49.04;102550.63;4866783;29;20029;-76
2023/04/19 08:07:16;;;;;;;9.07;4.75;;;;;;;15.28;48.00;102564.75;4865782;29;20092;-76
2023/04/19 08:09:41;;;;;;;12.50;5.40;;;;;;;15.72;45.76;102555.00;4864840;29;20029;-75
2023/04/19 08:12:06;;;;;;;9.73;5.30;;;;;;;16.06;44.58;102548.09;4863089;29;20127;-76
2023/04/19 08:14:32;;;;;;;11.55;5.70;;;;;;;16.46;43.25;102551.19;4863995;29;20071;-75
2023/04/19 08:16:57;;;;;;;11.55;5.57;;;;;;;16.56;43.38;102554.38;4865592;29;20481;-76
2023/04/19 08:19:22;;;;;;;9.82;5.38;;;;;;;16.64;41.18;102556.94;4865971;29;20493;-76
2023/04/19 08:21:48;;;;;;;9.90;5.32;;;;;;;16.24;41.56;102550.34;4863997;29;20026;-75
2023/04/19 08:24:13;;;;;;;9.43;5.13;;;;;;;16.29;40.73;102559.50;4862948;29;20093;-75
2023/04/19 08:26:39;;;;;;;9.07;4.75;;;;;;;16.52;41.65;102545.84;4863112;29;20127;-74
2023/04/19 08:29:05;;;;;;;9.38;4.68;;;;;;;16.95;40.10;102548.50;4862758;29;20061;-74
2023/04/19 08:31:30;;;;;;;8.65;5.28;;;;;;;16.93;38.76;102542.47;4862698;29;20057;-74
2023/04/19 08:33:57;;;;;;;8.43;4.30;;;;;;;16.67;40.27;102539.56;4862911;29;20074;-74
2023/04/19 08:36:22;;;;;;;7.43;4.13;;;;;;;16.63;40.79;102539.09;4861995;29;20037;-74
2023/04/19 08:38:48;;;;;;;7.40;3.83;;;;;;;16.70;40.13;102539.16;4861931;29;20052;-74
2023/04/19 08:41:15;;;;;;;9.88;5.47;;;;;;;16.22;39.72;102537.09;4862732;29;20041;-74
2023/04/19 08:43:42;;;;;;;7.68;3.95;;;;;;;15.15;40.84;102550.28;4860990;29;20037;-74
2023/04/19 08:46:10;;;;;;;11.02;4.13;;;;;;;14.06;42.44;102541.66;4864001;29;20034;-75
2023/04/19 08:48:36;;;;;;;6.88;4.43;;;;;;;13.27;44.65;102539.88;4863415;29;20033;-75
2023/04/19 08:51:02;;;;;;;8.48;4.80;;;;;;;12.88;45.95;102545.13;4863692;29;20036;-75
2023/04/19 08:53:29;;;;;;;7.32;4.63;;;;;;;12.60;47.85;102537.50;4864674;29;20025;-76
2023/04/19 08:55:57;;;;;;;9.45;4.43;;;;;;;12.42;46.29;102544.88;4862850;29;20854;-74
2023/04/19 08:58:24;;;;;;;10.05;4.65;;;;;;;12.19;46.79;102545.50;4863555;29;20032;-75
2023/04/19 09:00:50;;;;;;;9.30;3.65;;;;;;;12.20;47.88;102544.50;4863412;29;20479;-74
2023/04/19 09:03:15;;;;;;;5.63;3.80;;;;;;;12.30;48.55;102554.22;4861865;29;20037;-75
2023/04/19 09:05:40;;;;;;;5.88;3.83;;;;;;;12.12;47.02;102541.81;4862448;29;20041;-75
2023/04/19 09:08:25;;;;;;;7.25;3.70;;;;;;;12.06;47.62;102553.19;4863329;29;20120;-76
2023/04/19 09:10:59;;;;;;;8.68;4.50;;;;;;;12.03;49.16;102537.47;4861853;29;20438;-73
2023/04/19 09:13:25;;;;;;;6.05;3.40;;;;;;;12.00;46.71;102537.81;4862857;29;20040;-73
2023/04/19 09:15:52;;;;;;;6.35;3.55;;;;;;;12.07;47.94;102534.28;4863023;29;20037;-76
2023/04/19 09:18:18;;;;;;;5.13;3.40;;;;;;;12.04;47.44;102534.59;4863248;29;20459;-76
2023/04/19 09:20:44;;;;;;;7.47;3.30;;;;;;;11.98;47.85;102540.63;4863771;29;20037;-75
2023/04/19 09:23:12;;;;;;;7.00;3.50;;;;;;;12.00;49.59;102529.78;4865362;29;20056;-74
2023/04/19 09:25:38;;;;;;;8.80;3.67;;;;;;;12.05;50.95;102541.66;4882025;29;20484;-76
2023/04/19 09:28:11;;;;;;;7.57;4.03;;;;;;;12.12;52.12;102530.28;4865054;29;20467;-76
2023/04/19 09:30:38;;;;;;;6.85;3.75;;;;;;;12.12;51.00;102544.47;4882111;29;20088;-76
2023/04/19 09:33:03;;;;;;;6.65;3.38;;;;;;;12.00;51.77;102530.59;4884360;29;20660;-80
2023/04/19 09:35:49;;;;;;;7.07;3.70;;;;;;;12.09;52.11;102534.13;4884038;29;20047;-79
2023/04/19 09:38:15;;;;;;;8.05;3.95;;;;;;;12.12;52.34;102544.47;4885541;29;20067;-80
2023/04/19 09:40:41;;;;;;;10.05;4.07;;;;;;;12.23;49.79;102527.28;4886189;29;20025;-79
2023/04/19 09:43:07;;;;;;;7.60;3.63;;;;;;;12.37;50.38;102525.78;4887714;29;20437;-81
2023/04/19 09:45:46;;;;;;;6.45;3.90;;;;;;;12.43;50.15;102525.13;4889152;29;20099;-80
2023/04/19 09:48:11;;;;;;;6.70;3.58;;;;;;;12.44;51.07;102527.63;4888500;29;20041;-80
2023/04/19 09:50:58;;;;;;;7.80;3.55;;;;;;;12.42;50.78;102531.47;4885674;29;20405;-79
2023/04/19 09:53:24;;;;;;;7.93;3.65;;;;;;;12.35;49.64;102511.75;4881483;29;20085;-74
2023/04/19 09:55:50;;;;;;;6.38;3.20;;;;;;;12.49;48.19;102529.78;4879812;29;20158;-73
2023/04/19 09:58:17;;;;;;;7.30;2.83;;;;;;;12.44;44.84;102516.94;4868714;29;20164;-77
2023/04/19 10:00:44;;;;;;;4.72;2.60;;;;;;;12.36;44.58;102526.78;4862820;29;20037;-78
2023/04/19 10:03:11;;;;;;;5.72;2.40;;;;;;;12.29;46.06;102507.91;4880193;29;20040;-77
2023/04/19 10:05:39;;;;;;;4.50;2.60;;;;;;;12.47;45.55;102521.94;4887300;29;20097;-77
2023/04/19 10:08:07;;;;;;;4.25;2.40;;;;;;;12.38;43.25;102511.41;4875006;29;20065;-78
2023/04/19 10:10:33;;;;;;;6.22;2.63;;;;;;;12.37;43.13;102529.31;4882480;29;20039;-77
2023/04/19 10:13:01;;;;;;;5.15;2.17;;;;;;;12.33;43.42;102544.00;4878518;29;20033;-78
2023/04/19 10:15:28;;;;;;;4.32;2.15;;;;;;;12.27;43.34;102536.66;4890528;29;20059;-78
2023/04/19 10:17:54;;;;;;;5.07;2.10;;;;;;;12.21;43.20;102530.13;4878944;29;20409;-77
2023/04/19 10:20:23;;;;;;;4.72;2.00;;;;;;;12.20;43.57;102512.38;4890710;29;20036;-77
2023/04/19 10:22:49;;;;;;;7.28;2.38;;;;;;;12.19;43.67;102516.09;4891599;29;20073;-77
2023/04/19 10:25:15;;;;;;;4.40;1.98;;;;;;;12.25;42.52;102511.91;4891347;29;20416;-77
2023/04/19 10:27:47;;;;;;;8.98;2.90;;;;;;;12.30;42.08;102508.72;4870445;29;20036;-78
2023/04/19 10:30:25;;;;;;;5.28;2.22;;;;;;;12.31;44.33;102508.53;4879222;29;20445;-77
2023/04/19 10:32:55;;;;;;;3.40;1.83;;;;;;;12.33;42.71;102522.59;4893012;29;20111;-77
2023/04/19 10:35:23;;;;;;;4.15;2.13;;;;;;;12.33;42.03;102513.75;4863330;29;20147;-77
2023/04/19 10:38:10;;;;;;;3.67;1.63;;;;;;;12.36;42.49;102503.53;4887716;29;20492;-77
2023/04/19 10:40:55;;;;;;;5.72;1.80;;;;;;;12.57;44.01;102508.38;4883118;29;20434;-75
2023/04/19 10:43:21;;;;;;;2.92;1.85;;;;;;;12.57;39.55;102505.69;4876541;29;20021;-74
2023/04/19 10:45:47;;;;;;;4.28;1.80;;;;;;;12.49;39.23;102516.41;4876419;29;20089;-75
2023/04/19 10:48:34;;;;;;;16.23;3.03;;;;;;;12.57;42.12;102503.00;4886273;29;20598;-76
2023/04/19 10:51:02;;;;;;;4.13;1.85;;;;;;;12.45;41.67;102507.06;4877220;29;20046;-74
2023/04/19 10:53:50;;;;;;;5.10;2.58;;;;;;;12.43;41.94;102512.56;4888711;29;20108;-75
2023/04/19 10:56:19;;;;;;;2.28;1.52;;;;;;;12.43;41.60;102520.59;4876078;29;20036;-75
2023/04/19 10:59:00;;;;;;;5.57;2.20;;;;;;;12.33;41.59;102503.03;4876237;29;20021;-75
2023/04/19 11:01:48;;;;;;;8.70;2.17;;;;;;;12.43;42.93;102506.38;4876233;29;20127;-75
2023/04/19 11:04:14;;;;;;;6.03;2.75;;;;;;;12.40;41.99;102499.53;4875121;29;20033;-76
2023/04/19 11:06:52;;;;;;;6.00;2.13;;;;;;;12.36;41.79;102503.53;4893697;29;20484;-74
2023/04/19 11:09:43;;;;;;;2.40;1.88;;;;;;;12.37;42.88;102497.19;4894076;29;20064;-74
2023/04/19 11:12:17;;;;;;;5.75;2.90;;;;;;;12.39;41.56;102500.53;4893608;29;20040;-75
2023/04/19 11:14:54;;;;;;;9.82;2.60;;;;;;;12.38;41.31;102506.06;4876952;29;20404;-74
2023/04/19 11:17:24;;;;;;;3.88;2.15;;;;;;;12.37;41.83;102496.38;4894145;29;20111;-75